Time;durP1;ratioP1;P1;durP2;ratioP2;P2;SDS_P1;SDS_P2;PMS_P1;PMS_P2;Temp;Humidity;BMP_temperature;BMP_pressure;BME280_temperature;BME280_humidity;BME280_pressure;Samples;Min_cycle;Max_cycle;Signal;HPM_P1;HPM_P2
2023/01/09 00:00:55;;;;;;;105.30;74.70;;;;;;;3.07;100.00;97904.20;106059;1255;66911;-70
2023/01/09 00:03:25;;;;;;;107.60;76.20;;;;;;;3.02;100.00;97907.11;106060;1250;60580;-70
2023/01/09 00:05:52;;;;;;;108.10;79.80;;;;;;;2.96;100.00;97909.86;106072;1250;65579;-70
2023/01/09 00:08:19;;;;;;;104.80;76.60;;;;;;;2.89;100.00;97907.81;106087;1250;60460;-71
2023/01/09 00:10:48;;;;;;;110.20;77.70;;;;;;;2.81;100.00;97897.38;106060;1253;60438;-71
2023/01/09 00:13:16;;;;;;;105.00;75.90;;;;;;;2.73;100.00;97901.13;106290;1250;66782;-71
2023/01/09 00:15:43;;;;;;;108.10;77.20;;;;;;;2.64;100.00;97906.86;106144;1250;61681;-70
2023/01/09 00:18:10;;;;;;;102.70;74.70;;;;;;;2.53;100.00;97901.27;106080;1250;64271;-71
2023/01/09 00:20:37;;;;;;;104.60;73.40;;;;;;;2.43;100.00;97904.59;106050;1250;60543;-70
2023/01/09 00:23:03;;;;;;;106.50;76.10;;;;;;;2.35;100.00;97909.59;106061;1252;60386;-71
2023/01/09 00:25:30;;;;;;;103.50;74.10;;;;;;;2.26;100.00;97911.42;106076;1250;65951;-71
2023/01/09 00:27:57;;;;;;;103.30;73.50;;;;;;;2.17;100.00;97911.35;106092;1250;61379;-71
2023/01/09 00:30:24;;;;;;;102.50;74.70;;;;;;;2.08;100.00;97909.38;105804;1254;63383;-71
2023/01/09 00:32:50;;;;;;;116.80;85.60;;;;;;;1.97;100.00;97903.60;106086;1253;60345;-70
2023/01/09 00:35:17;;;;;;;110.00;80.10;;;;;;;1.90;100.00;97899.05;106092;1253;60396;-70
2023/01/09 00:37:44;;;;;;;114.20;84.50;;;;;;;1.84;100.00;97895.64;106060;1250;65401;-71
2023/01/09 00:40:13;;;;;;;113.20;81.40;;;;;;;1.79;100.00;97895.90;106083;1250;61546;-70
2023/01/09 00:42:44;;;;;;;114.00;81.90;;;;;;;1.78;100.00;97899.13;106225;1254;64045;-70
2023/01/09 00:45:15;;;;;;;111.50;78.70;;;;;;;1.75;100.00;97897.52;106393;1254;60501;-71
2023/01/09 00:47:50;;;;;;;108.60;75.10;;;;;;;1.72;100.00;97897.98;106267;1249;60892;-72
2023/01/09 00:50:29;;;;;;;116.20;80.40;;;;;;;1.71;100.00;97901.00;106102;1251;65461;-71
2023/01/09 00:52:59;;;;;;;117.60;84.00;;;;;;;1.69;100.00;97900.79;106138;1254;60547;-71
2023/01/09 00:55:26;;;;;;;;;;;;;;;1.68;100.00;97887.84;106117;1254;62453;-70
2023/01/09 00:57:54;;;;;;;113.20;79.70;;;;;;;1.67;100.00;97887.73;106172;1251;60537;-70
2023/01/09 01:00:21;;;;;;;108.50;77.70;;;;;;;1.65;100.00;97879.98;106159;1250;60546;-70
2023/01/09 01:02:48;;;;;;;104.40;78.00;;;;;;;1.63;100.00;97876.76;106076;1250;64834;-70
2023/01/09 01:08:00;;;;;;;114.60;78.70;;;;;;;1.58;100.00;97881.17;106074;1254;64304;-71
2023/01/09 01:10:27;;;;;;;115.10;82.10;;;;;;;1.56;100.00;97881.81;106025;1250;60383;-70
2023/01/09 01:12:54;;;;;;;121.30;82.70;;;;;;;1.56;100.00;97872.88;106084;1250;60457;-71
2023/01/09 01:15:20;;;;;;;111.10;79.30;;;;;;;1.58;100.00;97871.22;106074;1251;66834;-70
2023/01/09 01:17:47;;;;;;;108.30;77.20;;;;;;;1.58;100.00;97875.42;106075;1250;61360;-71
2023/01/09 01:20:17;;;;;;;108.20;78.10;;;;;;;1.58;100.00;97878.02;106068;1254;65242;-71
2023/01/09 01:22:44;;;;;;;112.60;79.20;;;;;;;1.56;100.00;97875.67;106048;1250;60387;-71
2023/01/09 01:25:12;;;;;;;108.30;77.80;;;;;;;1.53;100.00;97861.81;106058;1251;60361;-71
2023/01/09 01:27:39;;;;;;;109.30;77.70;;;;;;;1.51;100.00;97859.63;106153;1254;65865;-71
2023/01/09 01:30:09;;;;;;;109.70;79.50;;;;;;;1.51;100.00;97867.52;106071;1251;61315;-70
2023/01/09 01:32:36;;;;;;;104.20;78.60;;;;;;;1.49;100.00;97872.14;106164;1250;64445;-70
2023/01/09 01:35:03;;;;;;;112.30;77.80;;;;;;;1.47;100.00;97877.84;106038;1250;60630;-70
2023/01/09 01:37:30;;;;;;;108.80;75.80;;;;;;;1.46;100.00;97881.23;105818;1251;60555;-70
2023/01/09 01:39:57;;;;;;;101.40;76.80;;;;;;;1.45;100.00;97871.83;106081;1251;65918;-70
2023/01/09 01:42:23;;;;;;;103.50;76.70;;;;;;;1.43;100.00;97872.42;106064;1253;60415;-70
2023/01/09 01:44:53;;;;;;;103.20;75.80;;;;;;;1.42;100.00;97866.89;105986;1250;65611;-71
2023/01/09 01:47:24;;;;;;;112.70;81.40;;;;;;;1.42;100.00;97855.71;106049;1250;60361;-70
2023/01/09 01:49:51;;;;;;;112.90;77.40;;;;;;;1.43;100.00;97853.21;106148;1250;60361;-70
2023/01/09 01:52:19;;;;;;;106.00;75.70;;;;;;;1.44;100.00;97864.36;106006;1250;65448;-70
